Nearby METAR Reports

 

KDEN - Denver, Colorado, USA
Distance from station: NE 9mi, 14km
Updated: Sat, 22-Sep-2018 8:53pm MDT
Clear
Clear
 Wind from SSE
Wind: SSE 15 mph , 24 km/h
Temperature: 70°F , 21°C
Dew Point: 30°F , -1°C
Humidity: 23%
Barometer: 30.09 inHg , 1019 hPa
Clouds: Clear
Visibility: 10 miles , 16 km
2018/09/23 02:53 KDEN 230253Z 15013KT 10SM CLR 21/M01 A3009 RMK AO2 SLP118 T02061011 53004
KAPA - Centennial Airport, Colorado, USA
Distance from station: N 9mi, 14km
Updated: Sat, 22-Sep-2018 8:53pm MDT
Clear
Clear
 Wind from S
Wind: S 9 mph , 15 km/h
Temperature: 68°F , 20°C
Dew Point: 30°F , -1°C
Humidity: 24%
Barometer: 30.12 inHg , 1020 hPa
Clouds: Clear
Visibility: 10 miles , 16 km
2018/09/23 02:53 KAPA 230253Z 17008KT 10SM CLR 20/M01 A3012 RMK AO2 SLP132 T02001011 53005
 
KBJC - Broomfield Airport, Colorado, USA
Distance from station: NNW 14mi, 23km
Updated: Sat, 22-Sep-2018 8:47pm MDT
Few Clouds
Few Clouds
 Wind from WSW
Wind: WSW 6 mph , 9 km/h
Temperature: 68°F , 20°C
Dew Point: 19°F , -7°C
Humidity: 16%
Barometer: 30.11 inHg , 1019.6 hPa
Clouds: Few Clouds
Visibility: 30 miles , 48 km
Cloud details: Few Clouds 12000 ft
2018/09/23 02:47 KBJC 230247Z 25005KT 30SM FEW120 20/M07 A3011